首页
METAR-TAF:

METAR-TAF

机场 :

哥伦比亚, 南卡罗来纳州, 美国

纬度: 33-58-15N, 经度: 080-59-40W, 海拔: 64米

当前天气观测

该预报发布于23分钟前的23:53 UTC
风速4节,风向南转西南
温度 26°C
湿度 42%
气压 1016 hPa
能見度: 16.1公里
天空无云

METAR: KCUB 062353Z AUTO 21004KT 10SM CLR 26/12 A3000 RMK AO2 SLP158 T02560117 10294 20256 53001

时间: 20:16 (00:16 UTC)

预报

该预报发布于37分钟前的23:39 UTC
预报有效从07日的 00点(UTC)到 07日的 24点(UTC)
风速4节,风向多变
能見度: 10公里
散云层高于5000英尺
多云层高于10000英尺
从 07日的 1400点(UTC)
风速6节,风向西转西南
能見度: 10公里
散云层高于5000英尺
多云层高于25000英尺
从 07日的 1900点(UTC)
风速9节,风向西转西南,有时为16节阵风
能見度: 10公里
多云层高于5000英尺
多云层高于12000英尺
附近有阵雨

TAF: KCUB 062339Z 0700/0724 VRB04KT P6SM SCT050 BKN100 FM071400 25006KT P6SM SCT050 BKN250 FM071900 25009G16KT P6SM VCSH BKN050 BKN120

超过4000个机场的气象观测和天气预报(METAR&TAF报告)。

可查询的气象台以黄色和红色小点在地图上表示。

将鼠标移到小点上方,可查看气象台名称。

然后点击查看天气观测和预报。

如需切换地图:点击带黑十字的绿色按钮放大地图;点击带横线的绿色按钮缩小地图;或者点击绿色箭头查看邻近地区的地图。


METAR-TAF: